createdAt,value
2017-09-07T00:01:05.346Z,0
2017-09-07T00:02:13.943Z,0
2017-09-07T00:03:22.541Z,0
2017-09-07T00:04:31.139Z,0
2017-09-07T00:05:39.739Z,0
2017-09-07T00:06:48.344Z,0
2017-09-07T00:07:56.967Z,0
2017-09-07T00:09:05.535Z,0
2017-09-07T00:10:14.132Z,0
2017-09-07T00:11:23.042Z,0
2017-09-07T00:12:31.638Z,0
2017-09-07T00:13:40.237Z,0
2017-09-07T00:14:49.138Z,0
2017-09-07T00:15:57.734Z,0
2017-09-07T00:17:06.333Z,0
2017-09-07T00:18:14.929Z,0
2017-09-07T00:19:23.527Z,0
2017-09-07T00:20:32.126Z,0
2017-09-07T00:21:40.723Z,0
2017-09-07T00:22:49.319Z,0
2017-09-07T00:23:57.918Z,0
2017-09-07T00:25:06.516Z,0
2017-09-07T00:26:15.114Z,0
2017-09-07T00:27:23.711Z,0
2017-09-07T00:28:32.310Z,0
2017-09-07T00:29:40.907Z,0
2017-09-07T00:30:49.505Z,0
2017-09-07T00:31:58.104Z,0
2017-09-07T00:33:06.700Z,0
2017-09-07T00:34:15.603Z,0
2017-09-07T00:35:24.199Z,0
2017-09-07T00:36:32.796Z,0
2017-09-07T00:37:41.393Z,0
2017-09-07T00:38:49.992Z,0
2017-09-07T00:39:58.589Z,0
2017-09-07T00:41:07.495Z,0
2017-09-07T00:42:16.092Z,0
2017-09-07T00:43:24.992Z,0
2017-09-07T00:44:33.591Z,0
2017-09-07T00:45:42.186Z,0
2017-09-07T00:46:50.783Z,0
2017-09-07T00:47:59.382Z,0
2017-09-07T00:49:08.012Z,0
2017-09-07T00:50:16.575Z,0
2017-09-07T00:51:25.173Z,0
2017-09-07T00:52:33.771Z,0
2017-09-07T00:53:42.370Z,0
2017-09-07T00:54:50.967Z,0
2017-09-07T00:55:59.567Z,0
2017-09-07T00:57:08.160Z,0
2017-09-07T00:58:16.756Z,0
2017-09-07T00:59:25.356Z,0
2017-09-07T01:00:34.260Z,0
2017-09-07T01:01:42.855Z,0
2017-09-07T01:02:51.451Z,0
2017-09-07T01:04:00.047Z,0
2017-09-07T01:05:08.644Z,0
2017-09-07T01:06:17.243Z,0
2017-09-07T01:07:25.839Z,0
2017-09-07T01:08:34.440Z,0
2017-09-07T01:09:43.043Z,0
2017-09-07T01:10:51.641Z,0
2017-09-07T01:12:00.238Z,0
2017-09-07T01:13:08.834Z,0
2017-09-07T01:14:17.433Z,0
2017-09-07T01:15:26.034Z,0
2017-09-07T01:16:34.632Z,0
2017-09-07T01:17:43.231Z,0
2017-09-07T01:18:51.830Z,0
2017-09-07T01:20:00.429Z,0
2017-09-07T01:21:09.027Z,0
2017-09-07T01:22:17.625Z,0
2017-09-07T01:23:26.224Z,0
2017-09-07T01:24:34.824Z,0
2017-09-07T01:25:43.420Z,0
2017-09-07T01:26:52.017Z,0
2017-09-07T01:28:00.615Z,0
2017-09-07T01:29:09.212Z,0
2017-09-07T01:30:17.811Z,0
2017-09-07T01:31:26.410Z,0
2017-09-07T01:32:35.009Z,0
2017-09-07T01:33:43.916Z,0
2017-09-07T01:34:52.514Z,0
2017-09-07T01:36:01.112Z,0
2017-09-07T01:37:09.711Z,0
2017-09-07T01:38:18.310Z,0
2017-09-07T01:39:26.906Z,0
2017-09-07T01:40:35.505Z,0
2017-09-07T01:41:44.104Z,0
2017-09-07T01:42:52.702Z,0
2017-09-07T01:44:01.300Z,0
2017-09-07T01:45:09.905Z,0
2017-09-07T01:46:18.504Z,0
2017-09-07T01:47:27.102Z,0
2017-09-07T01:48:35.699Z,0
2017-09-07T01:49:44.298Z,0
2017-09-07T01:50:52.894Z,0
2017-09-07T01:52:01.491Z,0
2017-09-07T01:53:10.089Z,0
2017-09-07T01:54:18.687Z,0
2017-09-07T01:55:27.286Z,0
2017-09-07T01:56:35.882Z,0
2017-09-07T01:57:44.481Z,0
2017-09-07T01:58:53.076Z,0
2017-09-07T02:00:01.980Z,0
2017-09-07T02:01:10.580Z,0
2017-09-07T02:02:19.177Z,0
2017-09-07T02:03:27.773Z,0
2017-09-07T02:04:36.370Z,0
2017-09-07T02:05:44.968Z,0
2017-09-07T02:06:53.567Z,0
2017-09-07T02:08:02.171Z,0
2017-09-07T02:09:10.763Z,0
2017-09-07T02:10:19.361Z,0
2017-09-07T02:11:27.957Z,0
2017-09-07T02:12:36.554Z,0
2017-09-07T02:13:45.150Z,0
2017-09-07T02:14:53.747Z,0
2017-09-07T02:16:02.344Z,0
2017-09-07T02:17:10.940Z,0
2017-09-07T02:18:19.539Z,0
2017-09-07T02:19:28.136Z,0
2017-09-07T02:20:36.732Z,0
2017-09-07T02:21:45.332Z,0
2017-09-07T02:22:53.929Z,0
2017-09-07T02:24:02.527Z,0
2017-09-07T02:25:11.123Z,0
2017-09-07T02:26:19.722Z,0
2017-09-07T02:27:28.320Z,0
2017-09-07T02:28:36.918Z,0
2017-09-07T02:29:45.520Z,0
2017-09-07T02:30:54.121Z,0
2017-09-07T02:32:02.723Z,0
2017-09-07T02:33:11.317Z,0
2017-09-07T02:34:19.914Z,0
2017-09-07T02:35:28.510Z,0
2017-09-07T02:36:37.441Z,0
2017-09-07T02:37:46.038Z,0
2017-09-07T02:38:54.636Z,0
2017-09-07T02:40:03.238Z,0
2017-09-07T02:41:12.143Z,0
2017-09-07T02:42:20.743Z,0
2017-09-07T02:43:29.335Z,0
2017-09-07T02:44:38.237Z,0
2017-09-07T02:45:46.836Z,0
2017-09-07T02:46:55.432Z,0
2017-09-07T02:48:04.350Z,0
2017-09-07T02:49:12.997Z,0
2017-09-07T02:50:21.595Z,0
2017-09-07T02:51:30.194Z,0
2017-09-07T02:52:38.789Z,0
2017-09-07T02:53:47.387Z,0
2017-09-07T02:54:55.985Z,0
2017-09-07T02:56:04.583Z,0
2017-09-07T02:57:13.179Z,0
2017-09-07T02:58:21.779Z,0
2017-09-07T02:59:30.378Z,0
2017-09-07T03:00:38.981Z,0
2017-09-07T03:01:47.886Z,0
2017-09-07T03:02:56.482Z,0
2017-09-07T03:04:05.079Z,0
2017-09-07T03:05:13.990Z,0
2017-09-07T03:06:22.587Z,0
2017-09-07T03:07:31.185Z,0
2017-09-07T03:08:39.784Z,0
2017-09-07T03:09:48.380Z,0
2017-09-07T03:10:56.981Z,0
2017-09-07T03:12:05.576Z,0
2017-09-07T03:13:14.173Z,0
2017-09-07T03:14:23.077Z,0
2017-09-07T03:15:31.677Z,0
2017-09-07T03:16:40.276Z,0
2017-09-07T03:17:48.873Z,0
2017-09-07T03:18:57.471Z,0
2017-09-07T03:20:06.069Z,0
2017-09-07T03:21:14.666Z,0
2017-09-07T03:22:23.266Z,0
2017-09-07T03:23:31.865Z,0
2017-09-07T03:24:40.462Z,0
2017-09-07T03:25:49.061Z,0
2017-09-07T03:26:57.659Z,0
2017-09-07T03:28:06.267Z,0
2017-09-07T03:29:14.855Z,0
2017-09-07T03:30:23.452Z,0
2017-09-07T03:31:32.050Z,0
2017-09-07T03:32:40.646Z,0
2017-09-07T03:33:49.246Z,0
2017-09-07T03:34:57.843Z,0
2017-09-07T03:36:06.440Z,0
2017-09-07T03:37:15.039Z,0
2017-09-07T03:38:23.637Z,0
2017-09-07T03:39:32.239Z,0
2017-09-07T03:40:40.832Z,0
2017-09-07T03:41:49.431Z,0
2017-09-07T03:42:58.029Z,0
2017-09-07T03:44:06.630Z,0
2017-09-07T03:45:15.228Z,0
2017-09-07T03:46:23.825Z,0
2017-09-07T03:47:32.425Z,0
2017-09-07T03:48:41.021Z,0
2017-09-07T03:49:49.620Z,0
2017-09-07T03:50:58.221Z,0
2017-09-07T03:52:06.819Z,0
2017-09-07T03:53:15.417Z,0
2017-09-07T03:54:24.014Z,0
2017-09-07T03:55:32.609Z,0
2017-09-07T03:56:41.206Z,0
2017-09-07T03:57:49.803Z,0
2017-09-07T03:58:58.401Z,0
2017-09-07T04:00:06.998Z,0
2017-09-07T04:01:15.595Z,0
2017-09-07T04:02:24.192Z,0
2017-09-07T04:03:32.790Z,0
2017-09-07T04:04:41.390Z,0
2017-09-07T04:05:49.989Z,0
2017-09-07T04:06:58.588Z,0
2017-09-07T04:08:07.186Z,0
2017-09-07T04:09:15.788Z,0
2017-09-07T04:10:24.385Z,0
2017-09-07T04:11:32.986Z,0
2017-09-07T04:12:41.584Z,0
2017-09-07T04:13:50.183Z,0
2017-09-07T04:14:58.781Z,0
2017-09-07T04:16:07.382Z,0
2017-09-07T04:17:15.979Z,0
2017-09-07T04:18:24.575Z,0
2017-09-07T04:19:33.173Z,0
2017-09-07T04:20:41.772Z,0
2017-09-07T04:21:50.368Z,0
2017-09-07T04:22:58.968Z,0
2017-09-07T04:24:07.874Z,0
2017-09-07T04:25:16.472Z,0
2017-09-07T04:26:25.074Z,0
2017-09-07T04:27:33.673Z,0
2017-09-07T04:28:42.272Z,0
2017-09-07T04:29:50.870Z,0
2017-09-07T04:30:59.468Z,0
2017-09-07T04:32:08.065Z,0
2017-09-07T04:33:16.663Z,4
2017-09-07T04:34:25.261Z,4
2017-09-07T04:35:33.860Z,0
2017-09-07T04:36:42.459Z,4
2017-09-07T04:37:51.056Z,4
2017-09-07T04:38:59.653Z,0
2017-09-07T04:40:08.250Z,4
2017-09-07T04:41:16.851Z,8
2017-09-07T04:42:25.455Z,8
2017-09-07T04:43:34.356Z,8
2017-09-07T04:44:42.955Z,12
2017-09-07T04:45:51.556Z,8
2017-09-07T04:47:00.794Z,12
2017-09-07T04:48:09.391Z,16
2017-09-07T04:49:17.989Z,16
2017-09-07T04:50:26.587Z,20
2017-09-07T04:51:35.184Z,20
2017-09-07T04:52:43.781Z,20
2017-09-07T04:53:52.379Z,24
2017-09-07T04:55:00.978Z,28
2017-09-07T04:56:09.576Z,32
2017-09-07T04:57:18.174Z,36
2017-09-07T04:58:26.771Z,40
2017-09-07T04:59:35.369Z,44
2017-09-07T05:00:43.964Z,52
2017-09-07T05:01:52.571Z,56
2017-09-07T05:03:01.169Z,60
2017-09-07T05:04:09.777Z,68
2017-09-07T05:05:18.682Z,72
2017-09-07T05:06:27.280Z,76
2017-09-07T05:07:36.196Z,76
2017-09-07T05:08:44.793Z,80
2017-09-07T05:09:53.392Z,80
2017-09-07T05:11:01.995Z,84
2017-09-07T05:12:10.596Z,92
2017-09-07T05:13:19.196Z,84
2017-09-07T05:14:27.793Z,92
2017-09-07T05:15:36.394Z,92
2017-09-07T05:16:44.993Z,92
2017-09-07T05:17:53.597Z,96
2017-09-07T05:19:02.196Z,104
2017-09-07T05:20:10.793Z,108
2017-09-07T05:21:19.388Z,112
2017-09-07T05:22:27.986Z,128
2017-09-07T05:23:36.583Z,152
2017-09-07T05:24:45.180Z,176
2017-09-07T05:25:54.392Z,200
2017-09-07T05:27:02.992Z,208
2017-09-07T05:28:11.591Z,228
2017-09-07T05:29:20.189Z,244
2017-09-07T05:30:28.788Z,260
2017-09-07T05:31:37.387Z,264
2017-09-07T05:32:45.985Z,264
2017-09-07T05:33:54.582Z,264
2017-09-07T05:35:03.485Z,264
2017-09-07T05:36:12.082Z,260
2017-09-07T05:37:20.996Z,252
2017-09-07T05:38:29.593Z,240
2017-09-07T05:39:38.193Z,224
2017-09-07T05:40:47.099Z,216
2017-09-07T05:41:55.695Z,208
2017-09-07T05:43:04.291Z,196
2017-09-07T05:44:12.889Z,196
2017-09-07T05:45:21.490Z,192
2017-09-07T05:46:30.086Z,184
2017-09-07T05:47:38.689Z,176
2017-09-07T05:48:47.900Z,172
2017-09-07T05:49:56.810Z,172
2017-09-07T05:51:05.412Z,172
2017-09-07T05:52:14.015Z,164
2017-09-07T05:53:22.914Z,148
2017-09-07T05:54:31.512Z,148
2017-09-07T05:55:40.108Z,144
2017-09-07T05:56:48.704Z,140
2017-09-07T05:57:57.299Z,136
2017-09-07T05:59:05.899Z,132
2017-09-07T06:00:14.498Z,144
2017-09-07T06:01:23.098Z,156
2017-09-07T06:02:31.695Z,180
2017-09-07T06:03:40.295Z,172
2017-09-07T06:04:48.893Z,168
2017-09-07T06:05:57.492Z,180
2017-09-07T06:07:06.090Z,192
2017-09-07T06:08:14.689Z,220
2017-09-07T06:09:23.286Z,236
2017-09-07T06:10:31.884Z,284
2017-09-07T06:11:40.480Z,284
2017-09-07T06:12:49.080Z,296
2017-09-07T06:13:57.678Z,340
2017-09-07T06:15:06.274Z,344
2017-09-07T06:16:14.871Z,360
2017-09-07T06:17:23.472Z,328
2017-09-07T06:18:32.372Z,372
2017-09-07T06:19:40.968Z,432
2017-09-07T06:20:49.563Z,464
2017-09-07T06:21:58.159Z,496
2017-09-07T06:23:06.755Z,560
2017-09-07T06:24:15.353Z,604
2017-09-07T06:25:23.951Z,612
2017-09-07T06:26:32.552Z,628
2017-09-07T06:27:41.148Z,640
2017-09-07T06:28:49.747Z,568
2017-09-07T06:29:58.343Z,520
2017-09-07T06:31:06.941Z,524
2017-09-07T06:32:15.542Z,600
2017-09-07T06:33:24.139Z,616
2017-09-07T06:34:32.736Z,628
2017-09-07T06:35:41.339Z,636
2017-09-07T06:36:49.941Z,684
2017-09-07T06:37:58.844Z,692
2017-09-07T06:39:07.443Z,752
2017-09-07T06:40:16.043Z,740
2017-09-07T06:41:24.640Z,792
2017-09-07T06:42:33.539Z,704
2017-09-07T06:43:42.137Z,604
2017-09-07T06:44:50.741Z,560
2017-09-07T06:45:59.340Z,500
2017-09-07T06:47:07.943Z,504
2017-09-07T06:48:16.544Z,528
2017-09-07T06:49:25.141Z,556
2017-09-07T06:50:33.742Z,556
2017-09-07T06:51:42.340Z,536
2017-09-07T06:52:50.938Z,528
2017-09-07T06:53:59.538Z,516
2017-09-07T06:55:08.137Z,516
2017-09-07T06:56:16.735Z,540
2017-09-07T06:57:25.334Z,576
2017-09-07T06:58:33.932Z,620
2017-09-07T06:59:42.836Z,660
2017-09-07T07:00:51.434Z,668
2017-09-07T07:02:00.031Z,664
2017-09-07T07:03:08.631Z,668
2017-09-07T07:04:17.229Z,660
2017-09-07T07:05:25.830Z,624
2017-09-07T07:06:34.429Z,588
2017-09-07T07:07:43.026Z,584
2017-09-07T07:08:51.625Z,576
2017-09-07T07:10:00.536Z,572
2017-09-07T07:11:09.135Z,564
2017-09-07T07:12:17.734Z,560
2017-09-07T07:13:26.333Z,552
2017-09-07T07:14:34.935Z,544
2017-09-07T07:15:43.840Z,544
2017-09-07T07:16:53.117Z,560
2017-09-07T07:18:01.716Z,576
2017-09-07T07:19:10.316Z,608
2017-09-07T07:20:19.226Z,636
2017-09-07T07:21:27.823Z,672
2017-09-07T07:22:36.423Z,708
2017-09-07T07:23:45.025Z,704
2017-09-07T07:24:53.619Z,768
2017-09-07T07:26:02.217Z,736
2017-09-07T07:27:10.814Z,768
2017-09-07T07:28:19.412Z,804
2017-09-07T07:29:28.012Z,812
2017-09-07T07:30:36.609Z,848
2017-09-07T07:31:45.208Z,856
2017-09-07T07:32:53.806Z,888
2017-09-07T07:34:02.405Z,952
2017-09-07T07:35:11.004Z,964
2017-09-07T07:36:19.639Z,976
2017-09-07T07:37:28.201Z,972
2017-09-07T07:38:36.802Z,1020
2017-09-07T07:39:45.401Z,932
2017-09-07T07:40:54.000Z,892
2017-09-07T07:42:02.600Z,916
2017-09-07T07:43:11.201Z,1060
2017-09-07T07:44:19.800Z,1036
2017-09-07T07:45:28.397Z,1012
2017-09-07T07:46:36.995Z,980
2017-09-07T07:47:45.906Z,968
2017-09-07T07:48:54.809Z,888
2017-09-07T07:50:03.409Z,832
2017-09-07T07:51:12.008Z,860
2017-09-07T07:52:20.611Z,916
2017-09-07T07:53:29.515Z,1032
2017-09-07T07:54:38.111Z,936
2017-09-07T07:55:47.090Z,984
2017-09-07T07:56:55.687Z,948
2017-09-07T07:58:04.289Z,920
2017-09-07T07:59:12.888Z,944
2017-09-07T08:00:21.487Z,1028
2017-09-07T08:01:30.087Z,1076
2017-09-07T08:02:38.686Z,1180
2017-09-07T08:03:47.285Z,1236
2017-09-07T08:04:55.884Z,1308
2017-09-07T08:06:04.487Z,1440
2017-09-07T08:07:13.087Z,1264
2017-09-07T08:08:21.688Z,1404
2017-09-07T08:09:30.289Z,1516
2017-09-07T08:10:38.886Z,1472
2017-09-07T08:11:47.489Z,1372
2017-09-07T08:12:56.089Z,1320
2017-09-07T08:14:04.688Z,1284
2017-09-07T08:15:13.284Z,1384
2017-09-07T08:16:22.188Z,1556
2017-09-07T08:17:30.787Z,1500
2017-09-07T08:18:39.385Z,1736
2017-09-07T08:19:47.987Z,1412
2017-09-07T08:20:56.588Z,1428
2017-09-07T08:22:05.193Z,1536
2017-09-07T08:23:13.792Z,1512
2017-09-07T08:24:22.394Z,1424
2017-09-07T08:25:30.994Z,1476
2017-09-07T08:26:39.591Z,1668
2017-09-07T08:27:48.189Z,1580
2017-09-07T08:28:56.788Z,1480
2017-09-07T08:30:05.387Z,1348
2017-09-07T08:31:14.303Z,1192
2017-09-07T08:32:22.900Z,1320
2017-09-07T08:33:31.500Z,1160
2017-09-07T08:34:40.399Z,1096
2017-09-07T08:35:48.997Z,976
2017-09-07T08:36:57.597Z,948
2017-09-07T08:38:06.200Z,988
2017-09-07T08:39:14.799Z,888
2017-09-07T08:40:23.396Z,920
2017-09-07T08:41:31.992Z,1236
2017-09-07T08:42:40.590Z,1404
2017-09-07T08:43:49.188Z,1576
2017-09-07T08:44:57.786Z,1724
2017-09-07T08:46:06.386Z,1932
2017-09-07T08:47:14.985Z,1920
2017-09-07T08:48:23.583Z,2220
2017-09-07T08:49:32.188Z,2400
2017-09-07T08:50:40.789Z,2472
2017-09-07T08:51:49.389Z,2332
2017-09-07T08:52:57.991Z,2360
2017-09-07T08:54:06.590Z,2512
2017-09-07T08:55:15.193Z,2888
2017-09-07T08:56:23.794Z,2596
2017-09-07T08:57:32.391Z,2384
2017-09-07T08:58:40.989Z,1484
2017-09-07T08:59:49.588Z,1292
2017-09-07T09:00:58.189Z,1428
2017-09-07T09:02:06.788Z,1224
2017-09-07T09:03:15.387Z,1264
2017-09-07T09:04:23.987Z,1288
2017-09-07T09:05:32.587Z,932
2017-09-07T09:06:41.188Z,744
2017-09-07T09:07:49.787Z,600
2017-09-07T09:08:58.388Z,552
2017-09-07T09:10:06.986Z,500
2017-09-07T09:11:15.586Z,532
2017-09-07T09:12:24.187Z,828
2017-09-07T09:13:32.786Z,908
2017-09-07T09:14:41.388Z,616
2017-09-07T09:15:50.295Z,504
2017-09-07T09:16:58.893Z,500
2017-09-07T09:18:07.493Z,408
2017-09-07T09:19:16.090Z,456
2017-09-07T09:20:24.996Z,1288
2017-09-07T09:21:33.592Z,1628
2017-09-07T09:22:42.192Z,984
2017-09-07T09:23:50.791Z,1500
2017-09-07T09:24:59.387Z,2916
2017-09-07T09:26:07.984Z,3164
2017-09-07T09:27:16.584Z,2212
2017-09-07T09:28:25.183Z,1956
2017-09-07T09:29:33.780Z,2020
2017-09-07T09:30:42.380Z,1920
2017-09-07T09:31:50.979Z,2688
2017-09-07T09:32:59.882Z,2772
2017-09-07T09:34:08.485Z,1800
2017-09-07T09:35:17.081Z,1332
2017-09-07T09:36:25.680Z,2068
2017-09-07T09:37:34.278Z,2328
2017-09-07T09:38:42.879Z,2552
2017-09-07T09:39:51.481Z,1320
2017-09-07T09:41:00.080Z,740
2017-09-07T09:42:08.680Z,516
2017-09-07T09:43:17.280Z,472
2017-09-07T09:44:25.882Z,592
2017-09-07T09:45:34.795Z,800
2017-09-07T09:46:43.393Z,996
2017-09-07T09:47:51.991Z,1020
2017-09-07T09:49:00.590Z,844
2017-09-07T09:50:09.189Z,1176
2017-09-07T09:51:17.790Z,1384
2017-09-07T09:52:26.387Z,2092
2017-09-07T09:53:34.989Z,2308
2017-09-07T09:54:43.589Z,2068
2017-09-07T09:55:52.185Z,744
2017-09-07T09:57:00.784Z,560
2017-09-07T09:58:09.384Z,520
2017-09-07T09:59:17.983Z,568
2017-09-07T10:00:26.586Z,804
2017-09-07T10:01:35.184Z,1196
2017-09-07T10:02:43.785Z,1324
2017-09-07T10:03:52.386Z,1168
2017-09-07T10:05:01.294Z,996
2017-09-07T10:06:09.896Z,1060
2017-09-07T10:07:18.496Z,1036
2017-09-07T10:08:27.095Z,760
2017-09-07T10:09:35.694Z,820
2017-09-07T10:10:44.293Z,756
2017-09-07T10:11:52.892Z,656
2017-09-07T10:13:01.492Z,732
2017-09-07T10:14:10.097Z,764
2017-09-07T10:15:18.697Z,812
2017-09-07T10:16:27.294Z,1028
2017-09-07T10:17:35.892Z,4144
2017-09-07T10:18:44.493Z,1292
2017-09-07T10:19:53.090Z,1000
2017-09-07T10:21:01.689Z,972
2017-09-07T10:22:10.596Z,968
2017-09-07T10:23:19.196Z,1140
2017-09-07T10:24:27.796Z,912
2017-09-07T10:25:36.397Z,744
2017-09-07T10:26:44.998Z,524
2017-09-07T10:27:53.599Z,580
2017-09-07T10:29:02.204Z,644
2017-09-07T10:30:10.796Z,772
2017-09-07T10:31:19.395Z,948
2017-09-07T10:32:27.993Z,1176
2017-09-07T10:33:36.594Z,1384
2017-09-07T10:34:45.194Z,2524
2017-09-07T10:35:53.796Z,1080
2017-09-07T10:37:02.400Z,820
2017-09-07T10:38:11.002Z,688
2017-09-07T10:39:19.607Z,1440
2017-09-07T10:40:28.208Z,2232
2017-09-07T10:41:36.807Z,1992
2017-09-07T10:42:45.408Z,1260
2017-09-07T10:43:54.008Z,1404
2017-09-07T10:45:02.606Z,1028
2017-09-07T10:46:11.208Z,752
2017-09-07T10:47:19.809Z,704
2017-09-07T10:48:28.410Z,1392
2017-09-07T10:49:37.018Z,2892
2017-09-07T10:50:45.616Z,3000
2017-09-07T10:51:54.214Z,1836
2017-09-07T10:53:02.816Z,3308
2017-09-07T10:54:11.417Z,3372
2017-09-07T10:55:20.019Z,20544
2017-09-07T10:56:28.621Z,14720
2017-09-07T10:57:37.220Z,7624
2017-09-07T10:58:45.822Z,5896
2017-09-07T10:59:54.423Z,2124
2017-09-07T11:01:03.022Z,1620
2017-09-07T11:02:11.625Z,1280
2017-09-07T11:03:20.230Z,928
2017-09-07T11:04:28.830Z,864
2017-09-07T11:05:37.742Z,904
2017-09-07T11:06:46.644Z,1104
2017-09-07T11:07:55.548Z,1440
2017-09-07T11:09:04.148Z,2456
2017-09-07T11:10:12.749Z,1832
2017-09-07T11:11:21.350Z,1412
2017-09-07T11:12:29.951Z,1560
2017-09-07T11:13:38.550Z,2236
2017-09-07T11:14:47.150Z,2204
2017-09-07T11:15:55.751Z,3968
2017-09-07T11:17:04.353Z,2580
2017-09-07T11:18:12.955Z,2404
2017-09-07T11:19:21.555Z,2232
2017-09-07T11:20:30.157Z,1980
2017-09-07T11:21:38.761Z,1772
2017-09-07T11:22:47.361Z,2428
2017-09-07T11:23:55.969Z,2768
2017-09-07T11:25:04.569Z,3224
2017-09-07T11:26:13.170Z,1336
2017-09-07T11:27:22.084Z,1092
2017-09-07T11:28:30.682Z,976
2017-09-07T11:29:39.286Z,840
2017-09-07T11:30:47.886Z,1008
2017-09-07T11:31:56.487Z,1220
2017-09-07T11:33:05.093Z,1120
2017-09-07T11:34:13.697Z,1188
2017-09-07T11:35:22.296Z,976
2017-09-07T11:36:30.900Z,1100
2017-09-07T11:37:39.500Z,1144
2017-09-07T11:38:48.101Z,908
2017-09-07T11:39:56.701Z,792
2017-09-07T11:41:05.302Z,584
2017-09-07T11:42:13.938Z,508
2017-09-07T11:43:22.501Z,480
2017-09-07T11:44:31.102Z,544
2017-09-07T11:45:39.704Z,520
2017-09-07T11:46:48.303Z,436
2017-09-07T11:47:56.907Z,372
2017-09-07T11:49:05.506Z,364
2017-09-07T11:50:14.106Z,396
2017-09-07T11:51:22.706Z,620
2017-09-07T11:52:31.312Z,896
2017-09-07T11:53:39.916Z,920
2017-09-07T11:54:48.517Z,948
2017-09-07T11:55:57.122Z,972
2017-09-07T11:57:06.046Z,1048
2017-09-07T11:58:14.627Z,1288
2017-09-07T11:59:23.227Z,1860
2017-09-07T12:00:31.825Z,2392
2017-09-07T12:01:40.424Z,2060
2017-09-07T12:02:49.025Z,1640
2017-09-07T12:03:57.624Z,1328
2017-09-07T12:05:06.225Z,1328
2017-09-07T12:06:14.824Z,1408
2017-09-07T12:07:23.425Z,1204
2017-09-07T12:08:32.336Z,988
2017-09-07T12:09:40.937Z,872
2017-09-07T12:10:49.536Z,864
2017-09-07T12:11:58.136Z,1404
2017-09-07T12:13:06.737Z,1420
2017-09-07T12:14:15.341Z,1024
2017-09-07T12:15:23.946Z,1088
2017-09-07T12:16:32.548Z,1264
2017-09-07T12:17:41.459Z,1164
2017-09-07T12:18:50.058Z,1152
2017-09-07T12:19:58.663Z,1124
2017-09-07T12:21:07.265Z,972
2017-09-07T12:22:15.867Z,808
2017-09-07T12:23:24.467Z,664
2017-09-07T12:24:33.070Z,528
2017-09-07T12:25:41.672Z,448
2017-09-07T12:26:50.272Z,396
2017-09-07T12:27:59.178Z,340
2017-09-07T12:29:07.777Z,304
2017-09-07T12:30:16.378Z,268
2017-09-07T12:31:24.979Z,276
2017-09-07T12:32:33.581Z,288
2017-09-07T12:33:42.181Z,336
2017-09-07T12:34:50.782Z,408
2017-09-07T12:35:59.384Z,388
2017-09-07T12:37:07.987Z,436
2017-09-07T12:38:16.588Z,496
2017-09-07T12:39:25.188Z,528
2017-09-07T12:40:33.789Z,584
2017-09-07T12:41:42.388Z,752
2017-09-07T12:42:50.985Z,1020
2017-09-07T12:43:59.585Z,1576
2017-09-07T12:45:08.185Z,1956
2017-09-07T12:46:16.785Z,1780
2017-09-07T12:47:25.384Z,1440
2017-09-07T12:48:33.986Z,1228
2017-09-07T12:49:42.590Z,1084
2017-09-07T12:50:51.236Z,1076
2017-09-07T12:52:00.101Z,1316
2017-09-07T12:53:08.699Z,1484
2017-09-07T12:54:17.300Z,1696
2017-09-07T12:55:25.905Z,2064
2017-09-07T12:56:34.507Z,2152
2017-09-07T12:57:43.109Z,2072
2017-09-07T12:58:51.708Z,1888
2017-09-07T13:00:00.342Z,1748
2017-09-07T13:01:08.908Z,1408
2017-09-07T13:02:17.514Z,1312
2017-09-07T13:03:26.112Z,1492
2017-09-07T13:04:34.714Z,1496
2017-09-07T13:05:43.311Z,1268
2017-09-07T13:06:51.913Z,1232
2017-09-07T13:08:00.512Z,1312
2017-09-07T13:09:09.112Z,1528
2017-09-07T13:10:17.716Z,1708
2017-09-07T13:11:26.315Z,2056
2017-09-07T13:12:34.912Z,2092
2017-09-07T13:13:43.515Z,1980
2017-09-07T13:14:52.112Z,2060
2017-09-07T13:16:00.713Z,2000
2017-09-07T13:17:09.311Z,2144
2017-09-07T13:18:17.909Z,1772
2017-09-07T13:19:26.507Z,1804
2017-09-07T13:20:35.108Z,1700
2017-09-07T13:21:43.710Z,1608
2017-09-07T13:22:52.306Z,1712
2017-09-07T13:24:00.903Z,1584
2017-09-07T13:25:09.503Z,1800
2017-09-07T13:26:18.106Z,1604
2017-09-07T13:27:26.712Z,1524
2017-09-07T13:28:35.312Z,1432
2017-09-07T13:29:43.916Z,1404
2017-09-07T13:30:52.519Z,1464
2017-09-07T13:32:01.120Z,1392
2017-09-07T13:33:09.720Z,1212
2017-09-07T13:34:18.319Z,1184
2017-09-07T13:35:26.917Z,1240
2017-09-07T13:36:35.522Z,1196
2017-09-07T13:37:44.116Z,1056
2017-09-07T13:38:52.713Z,760
2017-09-07T13:40:01.310Z,584
2017-09-07T13:41:10.217Z,496
2017-09-07T13:42:18.820Z,492
2017-09-07T13:43:27.419Z,452
2017-09-07T13:44:36.021Z,436
2017-09-07T13:45:44.628Z,384
2017-09-07T13:46:53.229Z,344
2017-09-07T13:48:01.827Z,324
2017-09-07T13:49:10.427Z,288
2017-09-07T13:50:19.026Z,256
2017-09-07T13:51:27.626Z,240
2017-09-07T13:52:36.227Z,252
2017-09-07T13:53:44.827Z,276
2017-09-07T13:54:53.431Z,288
2017-09-07T13:56:02.029Z,408
2017-09-07T13:57:10.631Z,476
2017-09-07T13:58:19.227Z,436
2017-09-07T13:59:27.826Z,432
2017-09-07T14:00:36.426Z,524
2017-09-07T14:01:45.025Z,708
2017-09-07T14:02:53.625Z,976
2017-09-07T14:04:02.231Z,1168
2017-09-07T14:05:10.829Z,1268
2017-09-07T14:06:19.427Z,1348
2017-09-07T14:07:28.028Z,1400
2017-09-07T14:08:36.628Z,1484
2017-09-07T14:09:45.234Z,1544
2017-09-07T14:10:53.835Z,1584
2017-09-07T14:12:02.438Z,1640
2017-09-07T14:13:11.039Z,1676
2017-09-07T14:14:19.641Z,1700
2017-09-07T14:15:28.241Z,1708
2017-09-07T14:16:36.841Z,1724
2017-09-07T14:17:45.443Z,1716
2017-09-07T14:18:54.050Z,1704
2017-09-07T14:20:02.649Z,1600
2017-09-07T14:21:11.248Z,1516
2017-09-07T14:22:19.851Z,1576
2017-09-07T14:23:28.450Z,1600
2017-09-07T14:24:37.052Z,1500
2017-09-07T14:25:45.656Z,1364
2017-09-07T14:26:54.257Z,1208
2017-09-07T14:28:02.857Z,1212
2017-09-07T14:29:11.458Z,1252
2017-09-07T14:30:20.057Z,1136
2017-09-07T14:31:28.657Z,1056
2017-09-07T14:32:37.257Z,1020
2017-09-07T14:33:46.162Z,1056
2017-09-07T14:34:54.766Z,948
2017-09-07T14:36:03.372Z,832
2017-09-07T14:37:11.969Z,724
2017-09-07T14:38:20.570Z,684
2017-09-07T14:39:29.171Z,636
2017-09-07T14:40:37.768Z,568
2017-09-07T14:41:46.368Z,492
2017-09-07T14:42:55.270Z,468
2017-09-07T14:44:03.870Z,384
2017-09-07T14:45:12.470Z,296
2017-09-07T14:46:21.069Z,224
2017-09-07T14:47:29.668Z,176
2017-09-07T14:48:38.268Z,148
2017-09-07T14:49:46.871Z,136
2017-09-07T14:50:55.469Z,136
2017-09-07T14:52:04.078Z,148
2017-09-07T14:53:12.676Z,156
2017-09-07T14:54:21.275Z,160
2017-09-07T14:55:29.880Z,148
2017-09-07T14:56:38.480Z,144
2017-09-07T14:57:47.080Z,144
2017-09-07T14:58:55.681Z,144
2017-09-07T15:00:04.281Z,160
2017-09-07T15:01:12.883Z,192
2017-09-07T15:02:21.486Z,240
2017-09-07T15:03:30.085Z,260
2017-09-07T15:04:38.682Z,244
2017-09-07T15:05:47.281Z,224
2017-09-07T15:06:55.882Z,188
2017-09-07T15:08:04.788Z,160
2017-09-07T15:09:13.383Z,136
2017-09-07T15:10:21.983Z,128
2017-09-07T15:11:30.584Z,144
2017-09-07T15:12:39.183Z,164
2017-09-07T15:13:47.782Z,164
2017-09-07T15:14:56.692Z,184
2017-09-07T15:16:05.597Z,204
2017-09-07T15:17:14.198Z,236
2017-09-07T15:18:22.802Z,260
2017-09-07T15:19:31.403Z,280
2017-09-07T15:20:40.005Z,300
2017-09-07T15:21:48.606Z,276
2017-09-07T15:22:57.207Z,244
2017-09-07T15:24:05.807Z,188
2017-09-07T15:25:14.407Z,144
2017-09-07T15:26:23.008Z,112
2017-09-07T15:27:31.609Z,104
2017-09-07T15:28:40.208Z,104
2017-09-07T15:29:48.811Z,104
2017-09-07T15:30:57.412Z,108
2017-09-07T15:32:06.015Z,148
2017-09-07T15:33:14.623Z,244
2017-09-07T15:34:23.228Z,340
2017-09-07T15:35:31.827Z,388
2017-09-07T15:36:40.428Z,396
2017-09-07T15:37:49.028Z,408
2017-09-07T15:38:57.628Z,436
2017-09-07T15:40:06.229Z,496
2017-09-07T15:41:14.830Z,460
2017-09-07T15:42:23.434Z,420
2017-09-07T15:43:32.034Z,392
2017-09-07T15:44:40.635Z,324
2017-09-07T15:45:49.234Z,280
2017-09-07T15:46:57.837Z,260
2017-09-07T15:48:06.442Z,240
2017-09-07T15:49:15.347Z,200
2017-09-07T15:50:23.949Z,176
2017-09-07T15:51:32.548Z,168
2017-09-07T15:52:41.155Z,156
2017-09-07T15:53:49.755Z,148
2017-09-07T15:54:58.353Z,136
2017-09-07T15:56:06.952Z,136
2017-09-07T15:57:15.553Z,128